sensor_id;sensor_type;location;lat;lon;timestamp;P1;durP1;ratioP1;P2;durP2;ratioP2
48667;SDS011;34453;52.198;5.004;2022-11-21T00:00:27;49.15;;;27.38;;
48667;SDS011;34453;52.198;5.004;2022-11-21T00:02:53;49.33;;;27.02;;
48667;SDS011;34453;52.198;5.004;2022-11-21T00:05:18;48.20;;;29.83;;
48667;SDS011;34453;52.198;5.004;2022-11-21T00:07:43;45.63;;;27.92;;
48667;SDS011;34453;52.198;5.004;2022-11-21T00:10:10;50.20;;;27.50;;
48667;SDS011;34453;52.198;5.004;2022-11-21T00:12:35;50.22;;;30.08;;
48667;SDS011;34453;52.198;5.004;2022-11-21T00:15:00;51.40;;;28.08;;
48667;SDS011;34453;52.198;5.004;2022-11-21T00:17:26;41.42;;;26.10;;
48667;SDS011;34453;52.198;5.004;2022-11-21T00:19:51;51.85;;;27.83;;
48667;SDS011;34453;52.198;5.004;2022-11-21T00:22:16;43.80;;;26.25;;
48667;SDS011;34453;52.198;5.004;2022-11-21T00:24:42;48.95;;;26.75;;
48667;SDS011;34453;52.198;5.004;2022-11-21T00:27:07;45.13;;;26.13;;
48667;SDS011;34453;52.198;5.004;2022-11-21T00:29:32;46.58;;;26.52;;
48667;SDS011;34453;52.198;5.004;2022-11-21T00:31:57;52.67;;;28.50;;
48667;SDS011;34453;52.198;5.004;2022-11-21T00:34:23;48.47;;;27.67;;
48667;SDS011;34453;52.198;5.004;2022-11-21T00:36:48;45.90;;;26.73;;
48667;SDS011;34453;52.198;5.004;2022-11-21T00:39:13;40.75;;;24.92;;
48667;SDS011;34453;52.198;5.004;2022-11-21T00:41:38;44.75;;;25.95;;
48667;SDS011;34453;52.198;5.004;2022-11-21T00:44:04;42.53;;;23.35;;
48667;SDS011;34453;52.198;5.004;2022-11-21T00:46:29;40.15;;;22.30;;
48667;SDS011;34453;52.198;5.004;2022-11-21T00:48:55;43.60;;;25.08;;
48667;SDS011;34453;52.198;5.004;2022-11-21T00:51:20;37.65;;;22.55;;
48667;SDS011;34453;52.198;5.004;2022-11-21T00:53:45;38.25;;;23.95;;
48667;SDS011;34453;52.198;5.004;2022-11-21T00:56:11;39.28;;;22.75;;
48667;SDS011;34453;52.198;5.004;2022-11-21T00:58:36;41.67;;;22.50;;
48667;SDS011;34453;52.198;5.004;2022-11-21T01:01:09;43.00;;;23.45;;
48667;SDS011;34453;52.198;5.004;2022-11-21T01:03:34;40.95;;;24.55;;
48667;SDS011;34453;52.198;5.004;2022-11-21T01:06:01;41.00;;;24.83;;
48667;SDS011;34453;52.198;5.004;2022-11-21T01:08:26;41.83;;;24.38;;
48667;SDS011;34453;52.198;5.004;2022-11-21T01:10:52;48.90;;;26.52;;
48667;SDS011;34453;52.198;5.004;2022-11-21T01:13:17;42.90;;;23.60;;
48667;SDS011;34453;52.198;5.004;2022-11-21T01:15:42;46.67;;;25.67;;
48667;SDS011;34453;52.198;5.004;2022-11-21T01:18:07;39.63;;;23.13;;
48667;SDS011;34453;52.198;5.004;2022-11-21T01:20:37;42.50;;;23.83;;
48667;SDS011;34453;52.198;5.004;2022-11-21T01:23:02;42.90;;;24.27;;
48667;SDS011;34453;52.198;5.004;2022-11-21T01:25:28;46.20;;;25.95;;
48667;SDS011;34453;52.198;5.004;2022-11-21T01:27:54;51.60;;;27.50;;
48667;SDS011;34453;52.198;5.004;2022-11-21T01:30:19;48.55;;;25.60;;
48667;SDS011;34453;52.198;5.004;2022-11-21T01:32:46;49.40;;;27.50;;
48667;SDS011;34453;52.198;5.004;2022-11-21T01:35:12;56.85;;;29.63;;
48667;SDS011;34453;52.198;5.004;2022-11-21T01:37:37;51.63;;;26.63;;
48667;SDS011;34453;52.198;5.004;2022-11-21T01:40:02;60.40;;;29.98;;
48667;SDS011;34453;52.198;5.004;2022-11-21T01:42:27;52.53;;;26.77;;
48667;SDS011;34453;52.198;5.004;2022-11-21T01:44:53;47.88;;;27.05;;
48667;SDS011;34453;52.198;5.004;2022-11-21T01:47:18;52.20;;;27.88;;
48667;SDS011;34453;52.198;5.004;2022-11-21T01:49:44;53.55;;;27.45;;
48667;SDS011;34453;52.198;5.004;2022-11-21T01:52:15;51.55;;;26.25;;
48667;SDS011;34453;52.198;5.004;2022-11-21T01:59:40;49.70;;;26.75;;
48667;SDS011;34453;52.198;5.004;2022-11-21T02:02:08;53.15;;;29.02;;
48667;SDS011;34453;52.198;5.004;2022-11-21T02:04:34;48.17;;;27.27;;
48667;SDS011;34453;52.198;5.004;2022-11-21T02:07:00;56.63;;;29.70;;
48667;SDS011;34453;52.198;5.004;2022-11-21T02:09:27;52.08;;;28.38;;
48667;SDS011;34453;52.198;5.004;2022-11-21T02:12:09;50.67;;;28.27;;
48667;SDS011;34453;52.198;5.004;2022-11-21T02:14:36;50.22;;;26.85;;
48667;SDS011;34453;52.198;5.004;2022-11-21T02:17:03;51.47;;;27.02;;
48667;SDS011;34453;52.198;5.004;2022-11-21T02:19:51;52.33;;;28.15;;
48667;SDS011;34453;52.198;5.004;2022-11-21T02:22:38;47.97;;;26.88;;
48667;SDS011;34453;52.198;5.004;2022-11-21T02:25:07;51.45;;;26.27;;
48667;SDS011;34453;52.198;5.004;2022-11-21T02:27:33;50.67;;;27.95;;
48667;SDS011;34453;52.198;5.004;2022-11-21T02:30:00;46.08;;;26.75;;
48667;SDS011;34453;52.198;5.004;2022-11-21T02:32:33;55.75;;;27.65;;
48667;SDS011;34453;52.198;5.004;2022-11-21T02:34:58;48.70;;;25.80;;
48667;SDS011;34453;52.198;5.004;2022-11-21T02:37:24;45.08;;;25.05;;
48667;SDS011;34453;52.198;5.004;2022-11-21T02:39:49;48.47;;;26.42;;
48667;SDS011;34453;52.198;5.004;2022-11-21T02:44:56;51.25;;;26.88;;
48667;SDS011;34453;52.198;5.004;2022-11-21T02:47:24;50.67;;;26.27;;
48667;SDS011;34453;52.198;5.004;2022-11-21T02:49:57;47.10;;;26.67;;
48667;SDS011;34453;52.198;5.004;2022-11-21T02:52:24;48.05;;;23.65;;
48667;SDS011;34453;52.198;5.004;2022-11-21T02:54:49;44.90;;;23.98;;
48667;SDS011;34453;52.198;5.004;2022-11-21T02:57:14;47.70;;;24.67;;
48667;SDS011;34453;52.198;5.004;2022-11-21T02:59:39;41.17;;;24.70;;
48667;SDS011;34453;52.198;5.004;2022-11-21T03:02:05;44.10;;;23.58;;
48667;SDS011;34453;52.198;5.004;2022-11-21T03:04:30;42.28;;;22.02;;
48667;SDS011;34453;52.198;5.004;2022-11-21T03:06:55;40.92;;;22.27;;
48667;SDS011;34453;52.198;5.004;2022-11-21T03:09:21;45.08;;;23.08;;
48667;SDS011;34453;52.198;5.004;2022-11-21T03:11:46;52.83;;;24.33;;
48667;SDS011;34453;52.198;5.004;2022-11-21T03:14:11;48.28;;;23.73;;
48667;SDS011;34453;52.198;5.004;2022-11-21T03:16:37;52.90;;;26.83;;
48667;SDS011;34453;52.198;5.004;2022-11-21T03:19:02;52.95;;;23.08;;
48667;SDS011;34453;52.198;5.004;2022-11-21T03:21:27;47.85;;;24.42;;
48667;SDS011;34453;52.198;5.004;2022-11-21T03:23:52;68.63;;;25.50;;
48667;SDS011;34453;52.198;5.004;2022-11-21T03:26:18;59.45;;;26.92;;
48667;SDS011;34453;52.198;5.004;2022-11-21T03:28:43;50.08;;;23.50;;
48667;SDS011;34453;52.198;5.004;2022-11-21T03:31:08;57.78;;;24.45;;
48667;SDS011;34453;52.198;5.004;2022-11-21T03:33:33;51.88;;;24.00;;
48667;SDS011;34453;52.198;5.004;2022-11-21T03:35:59;52.00;;;24.33;;
48667;SDS011;34453;52.198;5.004;2022-11-21T03:38:24;52.10;;;23.90;;
48667;SDS011;34453;52.198;5.004;2022-11-21T03:40:49;51.17;;;24.48;;
48667;SDS011;34453;52.198;5.004;2022-11-21T03:43:15;51.40;;;24.83;;
48667;SDS011;34453;52.198;5.004;2022-11-21T03:45:40;78.88;;;25.48;;
48667;SDS011;34453;52.198;5.004;2022-11-21T03:48:05;53.63;;;24.83;;
48667;SDS011;34453;52.198;5.004;2022-11-21T03:50:30;63.63;;;26.90;;
48667;SDS011;34453;52.198;5.004;2022-11-21T03:52:56;79.57;;;25.23;;
48667;SDS011;34453;52.198;5.004;2022-11-21T03:55:21;65.75;;;26.30;;
48667;SDS011;34453;52.198;5.004;2022-11-21T03:57:46;69.95;;;24.80;;
48667;SDS011;34453;52.198;5.004;2022-11-21T04:00:12;47.72;;;23.23;;
48667;SDS011;34453;52.198;5.004;2022-11-21T04:02:37;80.32;;;25.02;;
48667;SDS011;34453;52.198;5.004;2022-11-21T04:05:02;90.88;;;22.92;;
48667;SDS011;34453;52.198;5.004;2022-11-21T04:07:28;101.82;;;24.95;;
48667;SDS011;34453;52.198;5.004;2022-11-21T04:09:54;44.08;;;24.20;;
48667;SDS011;34453;52.198;5.004;2022-11-21T04:12:19;39.88;;;22.13;;
48667;SDS011;34453;52.198;5.004;2022-11-21T04:14:44;120.30;;;28.30;;
48667;SDS011;34453;52.198;5.004;2022-11-21T04:17:09;116.75;;;29.77;;
48667;SDS011;34453;52.198;5.004;2022-11-21T04:19:34;66.32;;;25.27;;
48667;SDS011;34453;52.198;5.004;2022-11-21T04:22:00;58.35;;;25.33;;
48667;SDS011;34453;52.198;5.004;2022-11-21T04:24:25;109.07;;;27.52;;
48667;SDS011;34453;52.198;5.004;2022-11-21T04:26:50;119.22;;;26.17;;
48667;SDS011;34453;52.198;5.004;2022-11-21T04:29:17;85.47;;;26.10;;
48667;SDS011;34453;52.198;5.004;2022-11-21T04:31:42;46.88;;;21.83;;
48667;SDS011;34453;52.198;5.004;2022-11-21T04:34:08;46.97;;;23.30;;
48667;SDS011;34453;52.198;5.004;2022-11-21T04:36:33;66.95;;;24.85;;
48667;SDS011;34453;52.198;5.004;2022-11-21T04:38:58;97.22;;;26.58;;
48667;SDS011;34453;52.198;5.004;2022-11-21T04:41:23;138.20;;;29.80;;
48667;SDS011;34453;52.198;5.004;2022-11-21T04:43:49;136.38;;;28.48;;
48667;SDS011;34453;52.198;5.004;2022-11-21T04:46:14;69.50;;;27.88;;
48667;SDS011;34453;52.198;5.004;2022-11-21T04:48:39;105.05;;;27.80;;
48667;SDS011;34453;52.198;5.004;2022-11-21T04:51:04;85.63;;;30.05;;
48667;SDS011;34453;52.198;5.004;2022-11-21T04:53:30;78.85;;;27.00;;
48667;SDS011;34453;52.198;5.004;2022-11-21T04:55:55;80.03;;;28.45;;
48667;SDS011;34453;52.198;5.004;2022-11-21T04:58:20;75.20;;;28.80;;
48667;SDS011;34453;52.198;5.004;2022-11-21T05:00:45;66.45;;;29.23;;
48667;SDS011;34453;52.198;5.004;2022-11-21T05:03:11;78.18;;;27.92;;
48667;SDS011;34453;52.198;5.004;2022-11-21T05:05:36;88.90;;;32.97;;
48667;SDS011;34453;52.198;5.004;2022-11-21T05:08:01;69.50;;;29.38;;
48667;SDS011;34453;52.198;5.004;2022-11-21T05:10:26;69.53;;;29.00;;
48667;SDS011;34453;52.198;5.004;2022-11-21T05:12:56;73.88;;;32.90;;
48667;SDS011;34453;52.198;5.004;2022-11-21T05:15:39;58.58;;;27.00;;
48667;SDS011;34453;52.198;5.004;2022-11-21T05:18:05;66.95;;;32.03;;
48667;SDS011;34453;52.198;5.004;2022-11-21T05:20:30;69.65;;;30.15;;
48667;SDS011;34453;52.198;5.004;2022-11-21T05:22:55;66.55;;;30.48;;
48667;SDS011;34453;52.198;5.004;2022-11-21T05:25:20;61.30;;;29.98;;
48667;SDS011;34453;52.198;5.004;2022-11-21T05:27:46;65.80;;;30.60;;
48667;SDS011;34453;52.198;5.004;2022-11-21T05:30:11;82.70;;;31.08;;
48667;SDS011;34453;52.198;5.004;2022-11-21T05:32:36;65.72;;;30.15;;
48667;SDS011;34453;52.198;5.004;2022-11-21T05:35:01;71.70;;;30.33;;
48667;SDS011;34453;52.198;5.004;2022-11-21T05:37:27;73.13;;;29.80;;
48667;SDS011;34453;52.198;5.004;2022-11-21T05:39:52;74.03;;;31.80;;
48667;SDS011;34453;52.198;5.004;2022-11-21T05:42:17;77.43;;;30.35;;
48667;SDS011;34453;52.198;5.004;2022-11-21T05:45:03;70.75;;;28.67;;
48667;SDS011;34453;52.198;5.004;2022-11-21T05:47:28;66.05;;;30.95;;
48667;SDS011;34453;52.198;5.004;2022-11-21T05:49:53;63.05;;;30.67;;
48667;SDS011;34453;52.198;5.004;2022-11-21T05:52:18;80.05;;;30.13;;
48667;SDS011;34453;52.198;5.004;2022-11-21T05:54:43;83.68;;;31.88;;
48667;SDS011;34453;52.198;5.004;2022-11-21T05:57:09;76.85;;;29.30;;
48667;SDS011;34453;52.198;5.004;2022-11-21T05:59:34;93.13;;;30.20;;
48667;SDS011;34453;52.198;5.004;2022-11-21T06:01:59;61.38;;;28.88;;
48667;SDS011;34453;52.198;5.004;2022-11-21T06:04:43;103.57;;;33.55;;
48667;SDS011;34453;52.198;5.004;2022-11-21T06:07:08;89.05;;;30.77;;
48667;SDS011;34453;52.198;5.004;2022-11-21T06:09:34;67.82;;;30.23;;
48667;SDS011;34453;52.198;5.004;2022-11-21T06:11:59;126.80;;;32.17;;
48667;SDS011;34453;52.198;5.004;2022-11-21T06:14:24;65.55;;;30.27;;
48667;SDS011;34453;52.198;5.004;2022-11-21T06:16:50;96.70;;;32.13;;
48667;SDS011;34453;52.198;5.004;2022-11-21T06:19:15;72.93;;;31.85;;
48667;SDS011;34453;52.198;5.004;2022-11-21T06:21:40;73.60;;;30.25;;
48667;SDS011;34453;52.198;5.004;2022-11-21T06:24:06;64.90;;;29.63;;
48667;SDS011;34453;52.198;5.004;2022-11-21T06:26:32;69.22;;;29.60;;
48667;SDS011;34453;52.198;5.004;2022-11-21T06:28:57;94.90;;;32.05;;
48667;SDS011;34453;52.198;5.004;2022-11-21T06:31:23;72.43;;;31.13;;
48667;SDS011;34453;52.198;5.004;2022-11-21T06:33:53;69.53;;;30.13;;
48667;SDS011;34453;52.198;5.004;2022-11-21T06:36:18;65.57;;;30.08;;
48667;SDS011;34453;52.198;5.004;2022-11-21T06:38:43;69.75;;;31.23;;
48667;SDS011;34453;52.198;5.004;2022-11-21T06:41:10;83.55;;;32.97;;
48667;SDS011;34453;52.198;5.004;2022-11-21T06:43:36;91.18;;;33.72;;
48667;SDS011;34453;52.198;5.004;2022-11-21T06:46:01;84.72;;;33.00;;
48667;SDS011;34453;52.198;5.004;2022-11-21T06:48:28;64.22;;;30.98;;
48667;SDS011;34453;52.198;5.004;2022-11-21T06:50:53;67.60;;;31.27;;
48667;SDS011;34453;52.198;5.004;2022-11-21T06:53:18;74.25;;;30.63;;
48667;SDS011;34453;52.198;5.004;2022-11-21T06:55:44;69.25;;;29.00;;
48667;SDS011;34453;52.198;5.004;2022-11-21T06:58:09;65.38;;;27.98;;
48667;SDS011;34453;52.198;5.004;2022-11-21T07:00:35;57.63;;;26.00;;
48667;SDS011;34453;52.198;5.004;2022-11-21T07:03:00;63.53;;;27.63;;
48667;SDS011;34453;52.198;5.004;2022-11-21T07:05:26;55.35;;;26.05;;
48667;SDS011;34453;52.198;5.004;2022-11-21T07:07:56;59.42;;;26.77;;
48667;SDS011;34453;52.198;5.004;2022-11-21T07:10:21;64.15;;;26.90;;
48667;SDS011;34453;52.198;5.004;2022-11-21T07:12:46;57.00;;;26.10;;
48667;SDS011;34453;52.198;5.004;2022-11-21T07:15:31;59.00;;;26.33;;
48667;SDS011;34453;52.198;5.004;2022-11-21T07:17:57;59.70;;;27.15;;
48667;SDS011;34453;52.198;5.004;2022-11-21T07:20:22;69.13;;;30.90;;
48667;SDS011;34453;52.198;5.004;2022-11-21T07:22:47;64.25;;;27.90;;
48667;SDS011;34453;52.198;5.004;2022-11-21T07:25:13;63.10;;;27.30;;
48667;SDS011;34453;52.198;5.004;2022-11-21T07:27:38;60.38;;;27.27;;
48667;SDS011;34453;52.198;5.004;2022-11-21T07:30:03;62.47;;;25.60;;
48667;SDS011;34453;52.198;5.004;2022-11-21T07:32:29;65.40;;;26.42;;
48667;SDS011;34453;52.198;5.004;2022-11-21T07:34:54;55.95;;;23.50;;
48667;SDS011;34453;52.198;5.004;2022-11-21T07:37:19;54.70;;;25.65;;
48667;SDS011;34453;52.198;5.004;2022-11-21T07:39:45;64.30;;;26.45;;
48667;SDS011;34453;52.198;5.004;2022-11-21T07:42:10;64.50;;;25.85;;
48667;SDS011;34453;52.198;5.004;2022-11-21T07:44:35;54.20;;;24.95;;
48667;SDS011;34453;52.198;5.004;2022-11-21T07:47:01;52.28;;;24.17;;
48667;SDS011;34453;52.198;5.004;2022-11-21T07:49:26;52.88;;;21.73;;
48667;SDS011;34453;52.198;5.004;2022-11-21T07:51:52;58.08;;;25.75;;
48667;SDS011;34453;52.198;5.004;2022-11-21T07:54:17;55.38;;;25.58;;
48667;SDS011;34453;52.198;5.004;2022-11-21T07:56:42;52.22;;;24.27;;
48667;SDS011;34453;52.198;5.004;2022-11-21T07:59:08;56.50;;;24.48;;
48667;SDS011;34453;52.198;5.004;2022-11-21T08:01:33;53.67;;;24.65;;
48667;SDS011;34453;52.198;5.004;2022-11-21T08:03:58;49.58;;;23.48;;
48667;SDS011;34453;52.198;5.004;2022-11-21T08:06:23;53.03;;;22.85;;
48667;SDS011;34453;52.198;5.004;2022-11-21T08:08:52;46.45;;;23.15;;
48667;SDS011;34453;52.198;5.004;2022-11-21T08:11:18;54.17;;;23.20;;
48667;SDS011;34453;52.198;5.004;2022-11-21T08:13:43;56.42;;;23.20;;
48667;SDS011;34453;52.198;5.004;2022-11-21T08:16:08;53.35;;;22.63;;
48667;SDS011;34453;52.198;5.004;2022-11-21T08:18:34;53.30;;;23.13;;
48667;SDS011;34453;52.198;5.004;2022-11-21T08:21:00;55.05;;;24.70;;
48667;SDS011;34453;52.198;5.004;2022-11-21T08:23:26;48.33;;;23.55;;
48667;SDS011;34453;52.198;5.004;2022-11-21T08:25:51;49.95;;;22.25;;
48667;SDS011;34453;52.198;5.004;2022-11-21T08:28:16;51.63;;;22.70;;
48667;SDS011;34453;52.198;5.004;2022-11-21T08:30:41;47.53;;;21.83;;
48667;SDS011;34453;52.198;5.004;2022-11-21T08:33:07;52.00;;;22.58;;
48667;SDS011;34453;52.198;5.004;2022-11-21T08:35:34;49.55;;;22.25;;
48667;SDS011;34453;52.198;5.004;2022-11-21T08:37:59;54.70;;;20.90;;
48667;SDS011;34453;52.198;5.004;2022-11-21T08:40:25;83.13;;;46.33;;
48667;SDS011;34453;52.198;5.004;2022-11-21T08:45:22;59.03;;;25.10;;
48667;SDS011;34453;52.198;5.004;2022-11-21T08:47:47;84.75;;;54.67;;
48667;SDS011;34453;52.198;5.004;2022-11-21T08:50:13;82.95;;;47.15;;
48667;SDS011;34453;52.198;5.004;2022-11-21T08:52:38;60.55;;;30.42;;
48667;SDS011;34453;52.198;5.004;2022-11-21T08:55:04;56.30;;;23.58;;
48667;SDS011;34453;52.198;5.004;2022-11-21T08:57:29;58.15;;;25.13;;
48667;SDS011;34453;52.198;5.004;2022-11-21T08:59:55;57.70;;;25.80;;
48667;SDS011;34453;52.198;5.004;2022-11-21T09:02:20;62.92;;;29.83;;
48667;SDS011;34453;52.198;5.004;2022-11-21T09:04:46;53.83;;;24.85;;
48667;SDS011;34453;52.198;5.004;2022-11-21T09:07:11;53.10;;;23.45;;
48667;SDS011;34453;52.198;5.004;2022-11-21T09:09:36;61.92;;;25.60;;
48667;SDS011;34453;52.198;5.004;2022-11-21T09:12:01;68.07;;;31.95;;
48667;SDS011;34453;52.198;5.004;2022-11-21T09:14:27;40.15;;;22.60;;
48667;SDS011;34453;52.198;5.004;2022-11-21T09:17:11;52.90;;;27.80;;
48667;SDS011;34453;52.198;5.004;2022-11-21T09:19:56;48.78;;;24.67;;
48667;SDS011;34453;52.198;5.004;2022-11-21T09:22:22;50.90;;;23.45;;
48667;SDS011;34453;52.198;5.004;2022-11-21T09:24:47;46.78;;;24.40;;
48667;SDS011;34453;52.198;5.004;2022-11-21T09:27:12;57.67;;;24.65;;
48667;SDS011;34453;52.198;5.004;2022-11-21T09:29:38;47.20;;;24.08;;
48667;SDS011;34453;52.198;5.004;2022-11-21T09:32:03;46.42;;;23.02;;
48667;SDS011;34453;52.198;5.004;2022-11-21T09:34:28;45.38;;;23.98;;
48667;SDS011;34453;52.198;5.004;2022-11-21T09:36:55;49.95;;;25.83;;
48667;SDS011;34453;52.198;5.004;2022-11-21T09:39:21;43.17;;;25.40;;
48667;SDS011;34453;52.198;5.004;2022-11-21T09:46:46;45.63;;;21.02;;
48667;SDS011;34453;52.198;5.004;2022-11-21T09:49:11;37.15;;;19.35;;
48667;SDS011;34453;52.198;5.004;2022-11-21T09:51:37;37.72;;;20.48;;
48667;SDS011;34453;52.198;5.004;2022-11-21T09:56:35;40.78;;;21.48;;
48667;SDS011;34453;52.198;5.004;2022-11-21T09:59:07;39.85;;;20.42;;
48667;SDS011;34453;52.198;5.004;2022-11-21T10:01:36;36.78;;;19.58;;
48667;SDS011;34453;52.198;5.004;2022-11-21T10:04:02;47.87;;;21.03;;
48667;SDS011;34453;52.198;5.004;2022-11-21T10:06:28;44.22;;;20.83;;
48667;SDS011;34453;52.198;5.004;2022-11-21T10:22:00;41.50;;;19.55;;
48667;SDS011;34453;52.198;5.004;2022-11-21T10:28:03;40.50;;;22.52;;
48667;SDS011;34453;52.198;5.004;2022-11-21T10:30:21;39.78;;;20.42;;
48667;SDS011;34453;52.198;5.004;2022-11-21T10:32:47;43.42;;;23.38;;
48667;SDS011;34453;52.198;5.004;2022-11-21T10:35:15;43.80;;;22.08;;
48667;SDS011;34453;52.198;5.004;2022-11-21T10:37:42;42.85;;;21.83;;
48667;SDS011;34453;52.198;5.004;2022-11-21T10:40:17;50.83;;;22.48;;
48667;SDS011;34453;52.198;5.004;2022-11-21T10:42:51;56.55;;;24.23;;
48667;SDS011;34453;52.198;5.004;2022-11-21T10:45:17;47.40;;;24.70;;
48667;SDS011;34453;52.198;5.004;2022-11-21T10:47:46;51.92;;;28.35;;
48667;SDS011;34453;52.198;5.004;2022-11-21T10:50:32;52.92;;;25.85;;
48667;SDS011;34453;52.198;5.004;2022-11-21T10:53:21;67.22;;;37.97;;
48667;SDS011;34453;52.198;5.004;2022-11-21T10:56:25;49.58;;;25.98;;
48667;SDS011;34453;52.198;5.004;2022-11-21T10:58:52;60.92;;;33.00;;
48667;SDS011;34453;52.198;5.004;2022-11-21T11:01:28;50.63;;;27.38;;
48667;SDS011;34453;52.198;5.004;2022-11-21T11:06:35;39.08;;;23.17;;
48667;SDS011;34453;52.198;5.004;2022-11-21T11:09:00;40.47;;;23.08;;
48667;SDS011;34453;52.198;5.004;2022-11-21T11:11:26;35.72;;;19.50;;
48667;SDS011;34453;52.198;5.004;2022-11-21T11:16:17;41.47;;;21.90;;
48667;SDS011;34453;52.198;5.004;2022-11-21T11:18:54;33.78;;;19.08;;
48667;SDS011;34453;52.198;5.004;2022-11-21T11:21:21;29.05;;;18.88;;
48667;SDS011;34453;52.198;5.004;2022-11-21T11:23:48;29.05;;;19.23;;
48667;SDS011;34453;52.198;5.004;2022-11-21T11:28:47;26.48;;;15.88;;
48667;SDS011;34453;52.198;5.004;2022-11-21T11:31:13;29.70;;;16.38;;
48667;SDS011;34453;52.198;5.004;2022-11-21T11:33:39;26.67;;;15.10;;
48667;SDS011;34453;52.198;5.004;2022-11-21T11:36:12;23.23;;;12.85;;
48667;SDS011;34453;52.198;5.004;2022-11-21T11:38:38;16.83;;;11.80;;
48667;SDS011;34453;52.198;5.004;2022-11-21T11:41:07;17.67;;;11.98;;
48667;SDS011;34453;52.198;5.004;2022-11-21T11:43:57;13.93;;;10.93;;
48667;SDS011;34453;52.198;5.004;2022-11-21T11:46:43;20.35;;;8.57;;
48667;SDS011;34453;52.198;5.004;2022-11-21T11:49:30;14.45;;;9.30;;
48667;SDS011;34453;52.198;5.004;2022-11-21T11:52:17;21.67;;;8.82;;
48667;SDS011;34453;52.198;5.004;2022-11-21T11:54:46;14.85;;;8.15;;
48667;SDS011;34453;52.198;5.004;2022-11-21T11:57:12;9.77;;;7.47;;
48667;SDS011;34453;52.198;5.004;2022-11-21T11:59:39;11.38;;;8.77;;
48667;SDS011;34453;52.198;5.004;2022-11-21T12:02:15;17.08;;;7.55;;
48667;SDS011;34453;52.198;5.004;2022-11-21T12:04:56;10.52;;;6.22;;
48667;SDS011;34453;52.198;5.004;2022-11-21T12:07:25;9.20;;;5.30;;
48667;SDS011;34453;52.198;5.004;2022-11-21T12:09:58;9.50;;;4.40;;
48667;SDS011;34453;52.198;5.004;2022-11-21T12:12:35;5.43;;;3.28;;
48667;SDS011;34453;52.198;5.004;2022-11-21T12:15:11;8.23;;;4.30;;
48667;SDS011;34453;52.198;5.004;2022-11-21T12:23:13;9.48;;;3.40;;
48667;SDS011;34453;52.198;5.004;2022-11-21T12:25:52;11.05;;;4.28;;
48667;SDS011;34453;52.198;5.004;2022-11-21T12:28:31;10.30;;;4.70;;
48667;SDS011;34453;52.198;5.004;2022-11-21T12:33:29;10.07;;;3.28;;
48667;SDS011;34453;52.198;5.004;2022-11-21T12:36:03;12.05;;;3.50;;
48667;SDS011;34453;52.198;5.004;2022-11-21T12:41:30;9.20;;;3.00;;
48667;SDS011;34453;52.198;5.004;2022-11-21T12:47:23;15.45;;;4.07;;
48667;SDS011;34453;52.198;5.004;2022-11-21T12:49:34;3.13;;;2.75;;
48667;SDS011;34453;52.198;5.004;2022-11-21T12:52:25;16.75;;;6.45;;
48667;SDS011;34453;52.198;5.004;2022-11-21T12:58:02;8.18;;;4.43;;
48667;SDS011;34453;52.198;5.004;2022-11-21T13:03:38;51.28;;;19.58;;
48667;SDS011;34453;52.198;5.004;2022-11-21T13:08:53;8.93;;;4.07;;
48667;SDS011;34453;52.198;5.004;2022-11-21T13:11:22;3.72;;;2.35;;
48667;SDS011;34453;52.198;5.004;2022-11-21T13:14:12;34.97;;;19.35;;
48667;SDS011;34453;52.198;5.004;2022-11-21T13:16:41;9.00;;;5.28;;
48667;SDS011;34453;52.198;5.004;2022-11-21T13:19:15;33.00;;;16.75;;
48667;SDS011;34453;52.198;5.004;2022-11-21T13:21:51;20.50;;;11.13;;
48667;SDS011;34453;52.198;5.004;2022-11-21T13:27:02;18.63;;;3.05;;
48667;SDS011;34453;52.198;5.004;2022-11-21T13:29:27;6.82;;;4.20;;
48667;SDS011;34453;52.198;5.004;2022-11-21T13:31:52;9.60;;;5.05;;
48667;SDS011;34453;52.198;5.004;2022-11-21T13:36:55;11.10;;;6.45;;
48667;SDS011;34453;52.198;5.004;2022-11-21T13:39:24;7.40;;;5.18;;
48667;SDS011;34453;52.198;5.004;2022-11-21T13:44:37;11.40;;;5.30;;
48667;SDS011;34453;52.198;5.004;2022-11-21T13:49:43;3.95;;;3.58;;
48667;SDS011;34453;52.198;5.004;2022-11-21T14:02:55;4.20;;;3.13;;
48667;SDS011;34453;52.198;5.004;2022-11-21T14:07:50;8.88;;;3.13;;
48667;SDS011;34453;52.198;5.004;2022-11-21T14:12:45;7.75;;;4.55;;
48667;SDS011;34453;52.198;5.004;2022-11-21T14:15:22;11.93;;;4.20;;
48667;SDS011;34453;52.198;5.004;2022-11-21T14:17:50;15.60;;;4.07;;
48667;SDS011;34453;52.198;5.004;2022-11-21T14:20:18;21.33;;;12.02;;
48667;SDS011;34453;52.198;5.004;2022-11-21T14:22:46;16.05;;;7.10;;
48667;SDS011;34453;52.198;5.004;2022-11-21T14:25:17;24.38;;;6.75;;
48667;SDS011;34453;52.198;5.004;2022-11-21T14:27:45;10.65;;;6.25;;
48667;SDS011;34453;52.198;5.004;2022-11-21T14:30:53;13.35;;;5.00;;
48667;SDS011;34453;52.198;5.004;2022-11-21T14:35:46;8.95;;;5.00;;
48667;SDS011;34453;52.198;5.004;2022-11-21T14:38:12;7.30;;;4.97;;
48667;SDS011;34453;52.198;5.004;2022-11-21T14:40:38;6.47;;;3.90;;
48667;SDS011;34453;52.198;5.004;2022-11-21T14:43:20;7.78;;;3.53;;
48667;SDS011;34453;52.198;5.004;2022-11-21T14:45:49;12.07;;;5.40;;
48667;SDS011;34453;52.198;5.004;2022-11-21T14:48:15;10.02;;;4.68;;
48667;SDS011;34453;52.198;5.004;2022-11-21T14:50:49;7.97;;;4.07;;
48667;SDS011;34453;52.198;5.004;2022-11-21T14:53:14;16.10;;;4.13;;
48667;SDS011;34453;52.198;5.004;2022-11-21T14:55:40;9.63;;;5.53;;
48667;SDS011;34453;52.198;5.004;2022-11-21T14:58:05;8.15;;;4.55;;
48667;SDS011;34453;52.198;5.004;2022-11-21T15:00:31;9.38;;;3.88;;
48667;SDS011;34453;52.198;5.004;2022-11-21T15:02:57;5.53;;;4.10;;
48667;SDS011;34453;52.198;5.004;2022-11-21T15:05:32;9.40;;;4.43;;
48667;SDS011;34453;52.198;5.004;2022-11-21T15:07:58;5.53;;;3.80;;
48667;SDS011;34453;52.198;5.004;2022-11-21T15:10:28;12.05;;;4.80;;
48667;SDS011;34453;52.198;5.004;2022-11-21T15:13:07;4.93;;;3.67;;
48667;SDS011;34453;52.198;5.004;2022-11-21T15:15:37;8.73;;;4.00;;
48667;SDS011;34453;52.198;5.004;2022-11-21T15:18:04;6.05;;;3.55;;
48667;SDS011;34453;52.198;5.004;2022-11-21T15:20:31;17.88;;;4.43;;
48667;SDS011;34453;52.198;5.004;2022-11-21T15:22:57;14.38;;;4.97;;
48667;SDS011;34453;52.198;5.004;2022-11-21T15:25:30;14.15;;;4.90;;
48667;SDS011;34453;52.198;5.004;2022-11-21T15:30:41;10.95;;;4.00;;
48667;SDS011;34453;52.198;5.004;2022-11-21T15:33:17;5.72;;;3.35;;
48667;SDS011;34453;52.198;5.004;2022-11-21T15:35:52;8.70;;;3.88;;
48667;SDS011;34453;52.198;5.004;2022-11-21T15:40:56;11.45;;;4.03;;
48667;SDS011;34453;52.198;5.004;2022-11-21T15:43:40;11.63;;;4.50;;
48667;SDS011;34453;52.198;5.004;2022-11-21T15:46:13;16.85;;;10.10;;
48667;SDS011;34453;52.198;5.004;2022-11-21T15:48:39;28.00;;;18.27;;
48667;SDS011;34453;52.198;5.004;2022-11-21T15:51:04;11.30;;;6.18;;
48667;SDS011;34453;52.198;5.004;2022-11-21T15:53:30;13.57;;;6.18;;
48667;SDS011;34453;52.198;5.004;2022-11-21T15:55:55;12.52;;;7.47;;
48667;SDS011;34453;52.198;5.004;2022-11-21T15:58:20;10.70;;;9.73;;
48667;SDS011;34453;52.198;5.004;2022-11-21T16:00:46;15.82;;;5.78;;
48667;SDS011;34453;52.198;5.004;2022-11-21T16:03:11;11.40;;;7.03;;
48667;SDS011;34453;52.198;5.004;2022-11-21T16:05:37;10.70;;;8.68;;
48667;SDS011;34453;52.198;5.004;2022-11-21T16:08:03;12.05;;;4.68;;